Time;durP1;ratioP1;P1;durP2;ratioP2;P2;SDS_P1;SDS_P2;PMS_P1;PMS_P2;Temp;Humidity;BMP_temperature;BMP_pressure;BME280_temperature;BME280_humidity;BME280_pressure;Samples;Min_cycle;Max_cycle;Signal;HPM_P1;HPM_P2
2023/06/02 00:01:20;;;;;;;12.70;2.33;;;10.30;99.90;;;;;;4975145;28;20223;-64
2023/06/02 00:03:48;;;;;;;15.75;3.50;;;10.30;99.90;;;;;;4996442;28;20203;-64
2023/06/02 00:06:15;;;;;;;12.30;2.83;;;10.30;99.90;;;;;;4984413;28;20211;-64
2023/06/02 00:08:42;;;;;;;8.82;2.60;;;10.30;99.90;;;;;;5002308;28;20595;-64
2023/06/02 00:11:12;;;;;;;10.68;3.42;;;10.30;99.90;;;;;;4991902;28;20431;-64
2023/06/02 00:13:39;;;;;;;11.40;3.25;;;10.20;99.90;;;;;;4995571;28;20198;-64
2023/06/02 00:16:07;;;;;;;15.98;3.30;;;10.20;99.90;;;;;;4998874;28;20206;-65
2023/06/02 00:18:36;;;;;;;15.05;2.85;;;10.20;99.90;;;;;;4973561;28;20572;-64
2023/06/02 00:21:03;;;;;;;11.25;2.97;;;10.20;99.90;;;;;;4980455;28;20289;-64
2023/06/02 00:23:30;;;;;;;10.40;2.67;;;10.20;99.90;;;;;;4998839;28;20544;-64
2023/06/02 00:25:57;;;;;;;17.25;3.00;;;10.20;99.90;;;;;;4981684;28;20318;-64
2023/06/02 00:28:25;;;;;;;22.75;3.17;;;10.30;99.90;;;;;;4995896;28;20201;-65
2023/06/02 00:30:53;;;;;;;14.25;3.08;;;10.30;99.90;;;;;;4991132;28;20221;-64
2023/06/02 00:33:20;;;;;;;10.73;3.00;;;10.30;99.90;;;;;;4974431;28;20620;-64
2023/06/02 00:35:47;;;;;;;10.35;3.05;;;10.40;99.90;;;;;;4977213;28;20202;-64
2023/06/02 00:38:14;;;;;;;19.83;2.45;;;10.30;99.90;;;;;;5005060;28;20226;-64
2023/06/02 00:40:41;;;;;;;12.13;2.47;;;10.30;99.90;;;;;;5000490;28;20202;-64
2023/06/02 00:43:08;;;;;;;13.90;3.43;;;10.30;99.90;;;;;;4981955;28;21249;-64
2023/06/02 00:45:36;;;;;;;11.40;3.00;;;10.30;99.90;;;;;;5001489;28;20697;-64
2023/06/02 00:48:03;;;;;;;7.10;2.30;;;10.30;99.90;;;;;;4973875;28;28267;-65
2023/06/02 00:50:30;;;;;;;9.57;2.45;;;10.40;99.90;;;;;;5003082;28;20217;-64
2023/06/02 00:52:59;;;;;;;14.80;3.22;;;10.40;99.90;;;;;;4976935;28;20205;-65
2023/06/02 00:55:28;;;;;;;10.75;2.70;;;10.40;99.90;;;;;;5003747;28;20218;-64
2023/06/02 00:57:56;;;;;;;12.80;2.80;;;10.40;99.90;;;;;;4988161;28;21272;-65
2023/06/02 01:00:23;;;;;;;7.15;2.45;;;10.40;99.90;;;;;;4996491;28;20203;-64
2023/06/02 01:02:52;;;;;;;17.05;3.13;;;10.40;99.90;;;;;;4998992;28;20730;-65
2023/06/02 01:05:20;;;;;;;12.48;2.53;;;10.40;99.90;;;;;;4975776;28;20206;-65
2023/06/02 01:07:48;;;;;;;10.25;3.38;;;10.40;99.90;;;;;;4975002;28;20210;-65
2023/06/02 01:10:16;;;;;;;10.40;3.38;;;10.40;99.90;;;;;;4990909;28;20209;-65
2023/06/02 01:12:44;;;;;;;11.93;2.40;;;10.30;99.90;;;;;;5002764;28;20198;-65
2023/06/02 01:15:11;;;;;;;9.00;2.40;;;10.30;99.90;;;;;;4982844;28;20194;-65
2023/06/02 01:17:38;;;;;;;10.77;2.63;;;10.30;99.90;;;;;;5005346;28;20194;-64
2023/06/02 01:20:10;;;;;;;11.57;2.50;;;10.40;99.90;;;;;;4974534;28;20786;-65
2023/06/02 01:22:43;;;;;;;9.27;2.63;;;10.40;99.90;;;;;;4984291;28;20839;-65
2023/06/02 01:25:22;;;;;;;11.32;2.63;;;10.40;99.90;;;;;;4993641;28;20647;-65
2023/06/02 01:27:49;;;;;;;25.02;2.92;;;10.40;99.90;;;;;;5007370;28;20280;-64
2023/06/02 01:30:16;;;;;;;12.82;3.25;;;10.40;99.90;;;;;;4985189;28;20201;-65
2023/06/02 01:32:51;;;;;;;16.00;2.90;;;10.30;99.90;;;;;;5001344;28;20692;-64
2023/06/02 01:35:20;;;;;;;14.75;2.70;;;10.30;99.90;;;;;;4975950;28;20956;-65
2023/06/02 01:37:54;;;;;;;15.90;2.92;;;10.30;99.90;;;;;;4990952;28;20229;-65
2023/06/02 01:40:24;;;;;;;14.00;3.33;;;10.30;99.90;;;;;;5000896;28;20202;-64
2023/06/02 01:42:53;;;;;;;14.82;2.58;;;10.30;99.90;;;;;;4999706;28;20344;-64
2023/06/02 01:45:22;;;;;;;8.77;2.70;;;10.30;99.90;;;;;;4995460;28;20213;-64
2023/06/02 01:47:49;;;;;;;13.27;2.63;;;10.30;99.90;;;;;;4999253;28;20622;-65
2023/06/02 01:50:15;;;;;;;8.30;2.50;;;10.20;99.90;;;;;;4999420;28;20241;-64
2023/06/02 01:52:43;;;;;;;14.38;2.83;;;10.30;99.90;;;;;;4977199;28;20211;-64
2023/06/02 01:55:11;;;;;;;11.82;3.10;;;10.30;99.90;;;;;;4995760;28;20593;-65
2023/06/02 01:57:39;;;;;;;9.13;3.15;;;10.30;99.90;;;;;;4987896;28;20229;-64
2023/06/02 02:00:08;;;;;;;9.65;2.55;;;10.30;99.90;;;;;;4985310;28;20221;-64
2023/06/02 02:02:35;;;;;;;11.18;3.20;;;10.30;99.90;;;;;;4995935;28;20312;-64
2023/06/02 02:05:02;;;;;;;9.98;3.20;;;10.30;99.90;;;;;;5000548;28;20207;-65
2023/06/02 02:07:29;;;;;;;14.20;2.97;;;10.20;99.90;;;;;;4976839;28;20211;-65
2023/06/02 02:09:56;;;;;;;14.57;3.45;;;10.20;99.90;;;;;;4985107;28;20209;-65
2023/06/02 02:12:23;;;;;;;12.93;2.72;;;10.20;99.90;;;;;;5005812;28;20206;-64
2023/06/02 02:14:53;;;;;;;11.90;3.08;;;10.20;99.90;;;;;;4994690;28;20234;-65
2023/06/02 02:17:25;;;;;;;10.90;2.80;;;10.40;99.90;;;;;;4998340;28;20344;-64
2023/06/02 02:19:55;;;;;;;13.88;2.72;;;10.20;99.90;;;;;;5000354;28;20341;-65
2023/06/02 02:22:23;;;;;;;17.00;3.38;;;10.20;99.90;;;;;;4971485;28;20357;-65
2023/06/02 02:24:50;;;;;;;14.30;2.60;;;10.20;99.90;;;;;;4984680;28;20268;-64
2023/06/02 02:27:18;;;;;;;13.63;2.67;;;10.20;99.90;;;;;;5003530;28;20233;-64
2023/06/02 02:29:45;;;;;;;10.07;3.20;;;10.20;99.90;;;;;;4995720;28;20723;-65
2023/06/02 02:32:13;;;;;;;9.05;2.53;;;10.20;99.90;;;;;;4986590;28;20493;-65
2023/06/02 02:34:39;;;;;;;16.33;3.00;;;10.20;99.90;;;;;;5001487;28;20198;-65
2023/06/02 02:37:10;;;;;;;9.63;3.22;;;10.20;99.90;;;;;;4971449;28;20756;-65
2023/06/02 02:39:37;;;;;;;12.55;3.15;;;10.20;99.90;;;;;;5002595;28;20229;-65
2023/06/02 02:42:04;;;;;;;11.10;3.22;;;10.20;99.90;;;;;;4985963;28;20712;-64
2023/06/02 02:44:31;;;;;;;11.68;2.85;;;10.20;99.90;;;;;;5002240;28;20198;-65
2023/06/02 02:46:59;;;;;;;18.05;3.20;;;10.20;99.90;;;;;;4979162;28;20294;-65
2023/06/02 02:49:27;;;;;;;8.95;3.50;;;10.20;99.90;;;;;;5004286;28;20313;-65
2023/06/02 02:51:54;;;;;;;8.23;3.13;;;10.20;99.90;;;;;;4997025;28;20194;-64
2023/06/02 02:54:21;;;;;;;18.67;3.22;;;10.20;99.90;;;;;;4977315;28;20242;-65
2023/06/02 02:56:48;;;;;;;10.13;3.25;;;10.20;99.90;;;;;;4984469;28;20213;-65
2023/06/02 02:59:15;;;;;;;10.15;2.75;;;10.20;99.90;;;;;;5004551;28;20234;-65
2023/06/02 03:01:46;;;;;;;21.10;3.40;;;10.20;99.90;;;;;;4979846;28;20218;-65
2023/06/02 03:04:18;;;;;;;11.50;2.55;;;10.20;99.90;;;;;;4999525;28;20323;-65
2023/06/02 03:06:48;;;;;;;10.45;2.67;;;10.20;99.90;;;;;;5003582;28;20568;-65
2023/06/02 03:09:15;;;;;;;13.13;3.10;;;10.20;99.90;;;;;;4972029;28;20209;-64
2023/06/02 03:11:42;;;;;;;11.43;2.75;;;10.20;99.90;;;;;;4984392;28;20202;-65
2023/06/02 03:14:09;;;;;;;12.07;2.95;;;10.30;99.90;;;;;;4984406;28;20548;-65
2023/06/02 03:16:38;;;;;;;13.55;2.92;;;10.30;99.90;;;;;;5001646;28;20707;-65
2023/06/02 03:19:06;;;;;;;14.05;3.08;;;10.30;99.90;;;;;;4984043;28;20890;-65
2023/06/02 03:21:41;;;;;;;16.92;3.30;;;10.30;99.90;;;;;;4998759;28;20893;-64
2023/06/02 03:24:13;;;;;;;9.75;3.05;;;10.30;99.90;;;;;;4967220;28;24459;-65
2023/06/02 03:26:45;;;;;;;11.13;2.47;;;10.30;99.90;;;;;;4995612;28;20194;-65
2023/06/02 03:29:13;;;;;;;10.45;2.88;;;10.30;99.90;;;;;;4994156;28;20422;-65
2023/06/02 03:31:40;;;;;;;15.55;3.28;;;10.30;99.90;;;;;;5005239;28;20221;-65
2023/06/02 03:34:07;;;;;;;11.15;3.13;;;10.30;99.90;;;;;;4986687;28;22714;-65
2023/06/02 03:36:36;;;;;;;16.23;3.58;;;10.30;99.90;;;;;;5003768;28;20572;-65
2023/06/02 03:39:05;;;;;;;12.65;3.25;;;10.30;99.90;;;;;;4972362;28;20939;-65
2023/06/02 03:41:34;;;;;;;12.68;3.13;;;10.30;99.90;;;;;;5003245;28;20198;-65
2023/06/02 03:44:01;;;;;;;10.43;2.60;;;10.30;99.90;;;;;;4990230;28;20206;-65
2023/06/02 03:46:28;;;;;;;12.60;2.90;;;10.40;99.90;;;;;;5003704;28;21031;-66
2023/06/02 03:48:55;;;;;;;12.40;4.18;;;10.40;99.90;;;;;;4967315;28;20749;-65
2023/06/02 03:51:21;;;;;;;17.45;3.00;;;10.40;99.90;;;;;;4995081;28;20202;-65
2023/06/02 03:53:49;;;;;;;8.60;2.92;;;10.40;99.90;;;;;;4986829;28;20224;-65
2023/06/02 03:56:16;;;;;;;8.95;2.67;;;10.40;99.90;;;;;;4973250;28;20792;-65
2023/06/02 03:58:44;;;;;;;13.35;3.47;;;10.30;99.90;;;;;;4993365;28;20198;-65
2023/06/02 04:01:12;;;;;;;10.88;3.03;;;10.40;99.90;;;;;;4992679;28;20483;-65
2023/06/02 04:03:41;;;;;;;15.63;3.05;;;10.40;99.90;;;;;;4999422;28;20214;-65
2023/06/02 04:06:08;;;;;;;20.67;3.33;;;10.40;99.90;;;;;;4985807;28;20405;-65
2023/06/02 04:08:35;;;;;;;15.10;3.03;;;10.40;99.90;;;;;;5002941;28;20195;-64
2023/06/02 04:11:03;;;;;;;10.63;3.00;;;10.30;99.90;;;;;;4952807;28;20218;-64
2023/06/02 04:13:29;;;;;;;15.35;2.85;;;10.40;99.90;;;;;;4991545;28;20301;-65
2023/06/02 04:15:57;;;;;;;12.35;3.67;;;10.40;99.90;;;;;;4970009;28;21298;-65
2023/06/02 04:18:25;;;;;;;11.35;3.45;;;10.30;99.90;;;;;;5006334;28;20207;-64
2023/06/02 04:20:52;;;;;;;22.00;4.07;;;10.20;99.90;;;;;;4972528;28;20259;-65
2023/06/02 04:23:18;;;;;;;13.88;3.60;;;10.30;99.90;;;;;;5003604;28;20213;-64
2023/06/02 04:25:45;;;;;;;12.98;3.75;;;10.30;99.90;;;;;;4994577;28;20198;-65
2023/06/02 04:28:12;;;;;;;15.05;3.35;;;10.30;99.90;;;;;;4975721;28;20218;-65
2023/06/02 04:30:39;;;;;;;11.85;3.72;;;10.30;99.90;;;;;;4990201;28;20241;-65
2023/06/02 04:33:08;;;;;;;8.52;3.17;;;10.30;99.90;;;;;;4989356;28;20198;-65
2023/06/02 04:35:35;;;;;;;18.92;4.35;;;10.40;99.90;;;;;;4978957;28;20328;-65
2023/06/02 04:38:03;;;;;;;24.73;4.47;;;10.50;99.90;;;;;;4991202;28;20226;-65
2023/06/02 04:40:29;;;;;;;19.17;3.78;;;10.50;99.90;;;;;;4997178;28;20250;-65
2023/06/02 04:42:56;;;;;;;11.15;3.28;;;10.50;99.90;;;;;;4973437;28;20249;-65
2023/06/02 04:45:23;;;;;;;12.88;3.67;;;10.60;99.90;;;;;;4996735;28;20365;-65
2023/06/02 04:47:50;;;;;;;16.73;4.03;;;10.50;99.90;;;;;;4984113;28;20388;-65
2023/06/02 04:50:18;;;;;;;17.65;4.15;;;10.60;99.90;;;;;;4988410;28;20210;-65
2023/06/02 04:52:45;;;;;;;21.52;3.75;;;10.60;99.90;;;;;;4972548;28;20218;-65
2023/06/02 04:55:13;;;;;;;17.13;3.75;;;10.60;99.90;;;;;;4992602;28;20740;-65
2023/06/02 04:57:41;;;;;;;18.45;3.65;;;10.60;99.90;;;;;;4992698;28;20922;-65
2023/06/02 05:00:11;;;;;;;16.10;3.08;;;10.70;99.90;;;;;;4965562;28;20234;-65
2023/06/02 05:02:38;;;;;;;13.68;3.83;;;10.70;99.90;;;;;;4977611;28;20234;-65
2023/06/02 05:05:06;;;;;;;14.27;3.70;;;10.70;99.90;;;;;;4998679;28;20229;-65
2023/06/02 05:07:34;;;;;;;17.13;3.58;;;10.80;99.90;;;;;;4980434;28;20261;-64
2023/06/02 05:10:01;;;;;;;20.45;4.40;;;10.90;99.90;;;;;;4994645;28;20207;-64
2023/06/02 05:12:27;;;;;;;18.15;3.75;;;10.90;99.90;;;;;;4994624;28;20408;-65
2023/06/02 05:14:54;;;;;;;18.05;3.92;;;11.00;99.90;;;;;;4964668;28;20233;-65
2023/06/02 05:17:23;;;;;;;13.73;3.67;;;10.90;99.90;;;;;;4990691;28;20229;-65
2023/06/02 05:19:50;;;;;;;20.10;4.57;;;11.00;99.90;;;;;;4981878;28;20222;-64
2023/06/02 05:22:17;;;;;;;29.40;5.53;;;11.00;99.90;;;;;;4974574;28;20316;-64
2023/06/02 05:24:46;;;;;;;14.63;3.97;;;11.10;99.90;;;;;;4996872;28;20219;-64
2023/06/02 05:27:13;;;;;;;20.98;4.50;;;11.10;99.90;;;;;;4976992;28;20217;-64
2023/06/02 05:29:40;;;;;;;17.33;3.90;;;11.20;99.90;;;;;;4955557;28;20206;-65
2023/06/02 05:32:08;;;;;;;25.08;4.63;;;11.30;99.90;;;;;;4979112;28;20230;-65
2023/06/02 05:34:35;;;;;;;10.77;2.97;;;11.30;99.90;;;;;;4991695;28;20203;-65
2023/06/02 05:37:02;;;;;;;13.98;4.03;;;11.40;99.90;;;;;;5004655;28;20286;-65
2023/06/02 05:39:29;;;;;;;16.27;4.72;;;11.40;99.90;;;;;;5001977;28;20230;-65
2023/06/02 05:41:57;;;;;;;17.00;3.90;;;11.50;99.90;;;;;;4987831;28;20313;-65
2023/06/02 05:44:24;;;;;;;19.38;4.32;;;11.60;99.90;;;;;;4974774;28;20198;-65
2023/06/02 05:46:51;;;;;;;17.92;3.90;;;11.60;99.90;;;;;;4957905;28;20210;-65
2023/06/02 05:49:17;;;;;;;20.15;4.40;;;11.70;99.90;;;;;;4940250;28;20202;-65
2023/06/02 05:51:44;;;;;;;15.73;3.90;;;11.60;99.90;;;;;;4990270;28;20198;-65
2023/06/02 05:54:11;;;;;;;16.67;4.45;;;11.70;99.90;;;;;;4966024;28;20209;-64
2023/06/02 05:56:38;;;;;;;15.32;3.85;;;11.70;99.90;;;;;;4969464;28;20331;-65
2023/06/02 05:59:07;;;;;;;17.50;5.00;;;11.70;99.90;;;;;;4967446;28;20225;-66
2023/06/02 06:01:35;;;;;;;13.40;3.67;;;11.80;99.90;;;;;;4966898;28;20258;-66
2023/06/02 06:04:02;;;;;;;25.50;4.63;;;11.90;99.90;;;;;;4985577;28;20198;-65
2023/06/02 06:06:28;;;;;;;18.13;4.55;;;12.00;99.90;;;;;;4967740;28;20209;-65
2023/06/02 06:08:55;;;;;;;23.25;4.40;;;12.10;99.90;;;;;;4992466;28;20197;-65
2023/06/02 06:11:23;;;;;;;15.75;4.03;;;12.20;99.90;;;;;;4968920;28;20602;-64
2023/06/02 06:13:50;;;;;;;24.90;5.32;;;12.30;99.90;;;;;;4968152;28;20198;-65
2023/06/02 06:16:18;;;;;;;18.33;4.15;;;12.40;99.90;;;;;;4955820;28;20591;-65
2023/06/02 06:18:45;;;;;;;14.55;4.90;;;12.50;99.90;;;;;;4956276;28;20203;-65
2023/06/02 06:21:12;;;;;;;18.10;4.22;;;12.50;99.90;;;;;;4995071;28;20225;-64
2023/06/02 06:23:38;;;;;;;24.80;4.05;;;12.50;99.90;;;;;;4978941;28;20260;-65
2023/06/02 06:26:05;;;;;;;15.43;3.85;;;12.60;99.90;;;;;;4953922;28;20225;-65
2023/06/02 06:28:32;;;;;;;16.05;4.05;;;12.60;99.90;;;;;;4950756;28;20529;-65
2023/06/02 06:30:59;;;;;;;11.80;2.80;;;12.80;99.90;;;;;;4989778;28;20241;-65
2023/06/02 06:33:29;;;;;;;9.55;2.88;;;12.80;99.90;;;;;;4964427;28;20424;-65
2023/06/02 06:35:55;;;;;;;11.98;2.92;;;12.80;99.90;;;;;;4980893;28;20614;-65
2023/06/02 06:38:22;;;;;;;15.48;3.00;;;12.80;99.90;;;;;;4991805;28;20198;-65
2023/06/02 06:40:49;;;;;;;9.05;2.78;;;12.90;99.90;;;;;;4999868;28;20230;-65
2023/06/02 06:43:16;;;;;;;13.80;2.63;;;12.90;99.90;;;;;;4982975;28;20202;-65
2023/06/02 06:45:43;;;;;;;10.63;2.20;;;12.90;99.90;;;;;;4967501;28;20209;-65
2023/06/02 06:48:10;;;;;;;13.57;2.72;;;13.00;99.90;;;;;;4951438;28;20209;-65
2023/06/02 06:50:38;;;;;;;13.02;2.83;;;13.10;99.90;;;;;;4985217;28;21769;-65
2023/06/02 06:53:05;;;;;;;10.52;2.63;;;13.10;99.90;;;;;;5002044;28;20205;-65
2023/06/02 06:55:32;;;;;;;10.82;3.10;;;13.20;99.90;;;;;;4978983;28;20198;-65
2023/06/02 06:57:58;;;;;;;7.63;2.38;;;13.20;99.90;;;;;;4971327;28;20664;-65
2023/06/02 07:00:25;;;;;;;10.85;2.80;;;13.30;99.90;;;;;;4965832;28;20218;-65
2023/06/02 07:02:52;;;;;;;9.13;2.40;;;13.30;99.90;;;;;;4970542;28;20799;-66
2023/06/02 07:05:20;;;;;;;11.23;2.67;;;13.40;99.90;;;;;;4991696;28;20210;-65
2023/06/02 07:07:48;;;;;;;11.13;2.72;;;13.50;99.90;;;;;;4977365;28;20209;-65
2023/06/02 07:10:16;;;;;;;8.88;2.30;;;13.50;99.90;;;;;;4990059;28;20207;-66
2023/06/02 07:12:43;;;;;;;7.22;2.10;;;13.50;99.90;;;;;;4993274;28;20233;-65
2023/06/02 07:15:10;;;;;;;12.18;2.65;;;13.60;99.90;;;;;;4988396;28;20210;-65
2023/06/02 07:17:37;;;;;;;10.32;2.20;;;13.60;99.90;;;;;;4971676;28;20206;-65
2023/06/02 07:20:05;;;;;;;6.45;2.15;;;13.70;99.90;;;;;;4971601;28;20221;-65
2023/06/02 07:22:31;;;;;;;5.13;2.08;;;13.70;99.90;;;;;;4984698;28;20207;-65
2023/06/02 07:25:00;;;;;;;9.65;2.22;;;13.70;99.90;;;;;;5003064;28;20230;-65
2023/06/02 07:27:27;;;;;;;5.63;1.65;;;13.70;99.90;;;;;;4988382;28;20718;-65
2023/06/02 07:29:54;;;;;;;10.32;1.67;;;13.70;99.90;;;;;;4982240;28;20229;-65
2023/06/02 07:32:20;;;;;;;2.97;2.03;;;13.80;99.90;;;;;;4986290;28;20237;-65
2023/06/02 07:34:49;;;;;;;8.55;1.83;;;13.90;99.90;;;;;;4972176;28;20206;-65
2023/06/02 07:37:15;;;;;;;7.35;1.88;;;13.90;99.90;;;;;;4978536;28;20198;-65
2023/06/02 07:39:42;;;;;;;2.50;1.38;;;14.00;99.90;;;;;;4981691;28;20212;-65
2023/06/02 07:42:10;;;;;;;8.52;1.73;;;14.00;99.90;;;;;;4999844;28;20241;-65
2023/06/02 07:44:37;;;;;;;11.32;1.90;;;14.00;99.90;;;;;;4990493;28;20213;-65
2023/06/02 07:47:07;;;;;;;4.30;1.58;;;14.10;99.90;;;;;;4988805;28;20194;-65
2023/06/02 07:49:34;;;;;;;5.65;2.05;;;14.10;99.90;;;;;;4966473;28;21476;-65
2023/06/02 07:52:00;;;;;;;5.28;1.80;;;14.10;99.90;;;;;;4979128;28;20403;-65
2023/06/02 07:54:27;;;;;;;6.85;1.92;;;14.10;99.90;;;;;;4967662;28;20198;-64
2023/06/02 07:56:54;;;;;;;3.95;1.80;;;14.20;99.90;;;;;;4994135;28;20214;-65
2023/06/02 07:59:23;;;;;;;4.20;1.60;;;14.40;99.90;;;;;;4991221;28;20550;-65
2023/06/02 08:01:50;;;;;;;7.85;2.15;;;14.40;99.90;;;;;;4972701;28;20447;-65
2023/06/02 08:04:16;;;;;;;7.47;1.50;;;14.40;99.90;;;;;;4988263;28;20696;-65
2023/06/02 08:06:44;;;;;;;3.88;1.38;;;14.50;99.90;;;;;;4959304;28;20211;-65
2023/06/02 08:09:10;;;;;;;3.10;1.70;;;14.50;99.90;;;;;;4981951;28;20213;-64
2023/06/02 08:11:37;;;;;;;3.42;1.52;;;14.60;99.90;;;;;;5001803;28;20206;-65
2023/06/02 08:14:04;;;;;;;7.00;1.70;;;14.60;99.90;;;;;;5009360;28;20202;-65
2023/06/02 08:16:32;;;;;;;4.55;1.63;;;14.60;99.90;;;;;;4984490;28;20213;-65
2023/06/02 08:18:59;;;;;;;7.32;1.48;;;14.70;99.90;;;;;;4982926;28;20203;-65
2023/06/02 08:21:26;;;;;;;2.88;1.58;;;14.70;99.90;;;;;;4952624;28;20235;-65
2023/06/02 08:23:52;;;;;;;7.60;2.03;;;14.80;99.90;;;;;;4974231;28;20202;-65
2023/06/02 08:26:19;;;;;;;5.22;1.88;;;14.90;99.90;;;;;;5006980;28;21023;-65
2023/06/02 08:28:49;;;;;;;8.13;2.45;;;14.90;99.90;;;;;;5001870;28;20199;-64
2023/06/02 08:31:18;;;;;;;3.33;1.42;;;15.00;99.90;;;;;;4993836;28;20227;-65
2023/06/02 08:33:47;;;;;;;4.50;1.70;;;15.00;99.90;;;;;;4979029;28;20268;-64
2023/06/02 08:36:17;;;;;;;3.50;1.77;;;15.00;99.90;;;;;;4969246;28;20408;-65
2023/06/02 08:38:44;;;;;;;8.77;2.08;;;15.00;99.90;;;;;;4967119;28;20792;-65
2023/06/02 08:41:12;;;;;;;5.78;1.88;;;15.20;99.90;;;;;;4985939;28;20237;-65
2023/06/02 08:43:39;;;;;;;8.00;2.00;;;15.10;99.90;;;;;;4993286;28;20203;-65
2023/06/02 08:46:07;;;;;;;5.57;1.77;;;15.20;99.90;;;;;;4992254;28;20518;-65
2023/06/02 08:48:36;;;;;;;6.13;1.83;;;15.30;99.90;;;;;;4979222;28;20209;-65
2023/06/02 08:51:10;;;;;;;5.10;1.75;;;15.20;99.90;;;;;;4994176;28;20697;-65
2023/06/02 08:53:37;;;;;;;5.95;1.90;;;15.20;99.90;;;;;;4974151;28;20198;-65
2023/06/02 08:56:05;;;;;;;4.47;1.83;;;15.20;99.90;;;;;;4987492;28;20198;-65
2023/06/02 08:58:33;;;;;;;3.83;2.10;;;15.20;99.90;;;;;;5006014;28;20195;-65
2023/06/02 09:01:00;;;;;;;4.45;1.83;;;15.20;99.90;;;;;;4991695;28;23265;-65
2023/06/02 09:03:27;;;;;;;3.13;1.88;;;15.20;99.90;;;;;;4993873;28;20596;-65
2023/06/02 09:05:54;;;;;;;4.03;2.03;;;15.40;99.90;;;;;;4988394;28;20739;-66
2023/06/02 09:08:22;;;;;;;3.70;1.80;;;15.60;99.90;;;;;;4974429;28;20203;-65
2023/06/02 09:10:49;;;;;;;4.75;1.92;;;15.70;99.90;;;;;;4986514;28;20206;-65
2023/06/02 09:13:33;;;;;;;3.70;2.10;;;15.80;99.90;;;;;;5003152;28;20285;-65
2023/06/02 09:16:02;;;;;;;4.53;1.92;;;15.70;99.90;;;;;;5002558;28;20213;-66
2023/06/02 09:18:29;;;;;;;10.15;2.17;;;15.60;99.90;;;;;;4976950;28;20306;-66
2023/06/02 09:20:58;;;;;;;2.50;1.52;;;15.60;99.90;;;;;;4995352;28;20248;-66
2023/06/02 09:23:40;;;;;;;4.30;2.35;;;15.50;99.90;;;;;;4968164;28;20350;-66
2023/06/02 09:26:18;;;;;;;3.70;1.65;;;15.60;99.90;;;;;;4982795;28;20199;-65
2023/06/02 09:28:45;;;;;;;11.07;1.98;;;15.60;99.90;;;;;;5003931;28;20710;-66
2023/06/02 09:31:13;;;;;;;5.15;2.28;;;15.60;99.90;;;;;;4969221;28;21479;-65
2023/06/02 09:33:40;;;;;;;7.70;2.72;;;15.60;99.90;;;;;;4973598;28;20349;-66
2023/06/02 09:36:23;;;;;;;6.05;2.22;;;15.60;99.90;;;;;;4965182;28;20225;-66
2023/06/02 09:38:52;;;;;;;3.90;2.10;;;15.70;99.90;;;;;;4964277;28;20313;-66
2023/06/02 09:41:19;;;;;;;6.45;2.58;;;15.80;99.90;;;;;;4979636;28;20265;-66
2023/06/02 09:43:46;;;;;;;6.10;2.40;;;15.90;99.90;;;;;;4992404;28;20249;-66
2023/06/02 09:46:14;;;;;;;4.60;2.10;;;16.00;99.90;;;;;;4997726;28;20214;-66
2023/06/02 09:48:55;;;;;;;4.60;2.30;;;16.00;99.90;;;;;;4993047;28;20399;-65
2023/06/02 09:51:25;;;;;;;8.90;2.65;;;16.10;99.90;;;;;;4964297;28;20249;-65
2023/06/02 09:53:55;;;;;;;5.22;2.38;;;16.20;99.90;;;;;;4960648;28;20210;-66
2023/06/02 09:56:23;;;;;;;3.83;2.25;;;16.20;99.90;;;;;;4978802;28;20588;-65
2023/06/02 09:58:50;;;;;;;7.50;2.40;;;16.30;99.90;;;;;;4999452;28;20202;-66
2023/06/02 10:01:17;;;;;;;4.20;2.25;;;16.40;99.90;;;;;;4974558;28;20214;-66
2023/06/02 10:03:44;;;;;;;5.60;2.13;;;16.30;99.90;;;;;;4986033;28;20218;-65
2023/06/02 10:06:20;;;;;;;4.18;1.98;;;16.20;99.90;;;;;;4990432;28;20202;-65
2023/06/02 10:09:00;;;;;;;7.35;2.40;;;16.20;99.90;;;;;;4976978;28;20193;-66
2023/06/02 10:11:37;;;;;;;5.72;2.58;;;16.10;99.90;;;;;;4996575;28;20355;-65
2023/06/02 10:14:26;;;;;;;6.32;2.45;;;16.10;99.90;;;;;;4974829;28;20339;-65
2023/06/02 10:17:03;;;;;;;6.47;2.38;;;16.10;99.90;;;;;;4986539;28;20221;-66
2023/06/02 10:19:53;;;;;;;6.88;2.92;;;16.20;99.90;;;;;;4979576;28;20226;-65
2023/06/02 10:22:48;;;;;;;6.55;2.67;;;16.30;99.90;;;;;;4987565;28;20366;-65
2023/06/02 10:25:24;;;;;;;5.47;2.22;;;16.30;99.90;;;;;;4959092;28;20432;-66
2023/06/02 10:27:51;;;;;;;4.82;2.30;;;16.30;99.90;;;;;;4989600;28;20202;-66
2023/06/02 10:30:22;;;;;;;2.95;2.28;;;16.30;99.90;;;;;;4979028;28;20678;-65
2023/06/02 10:32:50;;;;;;;25.08;3.10;;;16.30;99.90;;;;;;4992022;28;20698;-66
2023/06/02 10:35:18;;;;;;;4.60;2.45;;;16.30;99.90;;;;;;4983111;28;20233;-66
2023/06/02 10:37:45;;;;;;;7.63;2.20;;;16.40;99.90;;;;;;4993191;28;20202;-63
2023/06/02 10:40:14;;;;;;;3.47;1.90;;;16.40;99.90;;;;;;4974234;28;20414;-63
2023/06/02 10:43:11;;;;;;;3.38;2.15;;;16.50;99.90;;;;;;4972948;28;20943;-65
2023/06/02 10:45:41;;;;;;;3.60;2.28;;;16.70;99.90;;;;;;4993399;28;20210;-65
2023/06/02 10:48:39;;;;;;;5.88;2.60;;;16.60;99.90;;;;;;4988406;28;20326;-65
2023/06/02 10:51:07;;;;;;;5.28;2.90;;;16.60;99.90;;;;;;4995458;28;20676;-65
2023/06/02 10:53:34;;;;;;;8.27;2.65;;;16.60;99.90;;;;;;4988009;28;20673;-65
2023/06/02 10:56:38;;;;;;;6.03;2.72;;;16.50;99.90;;;;;;4973085;28;20206;-65
2023/06/02 10:59:07;;;;;;;3.50;2.15;;;16.80;99.90;;;;;;4935619;28;21199;-65
2023/06/02 11:01:47;;;;;;;7.25;2.45;;;16.60;99.90;;;;;;4980497;28;20222;-65
2023/06/02 11:04:28;;;;;;;3.88;2.10;;;16.70;99.90;;;;;;4989956;28;20208;-65
2023/06/02 11:07:18;;;;;;;9.15;2.83;;;16.70;99.90;;;;;;4982631;28;20223;-66
2023/06/02 11:09:46;;;;;;;3.75;2.47;;;16.80;99.90;;;;;;4975387;28;20222;-65
2023/06/02 11:12:13;;;;;;;4.65;2.30;;;16.90;99.90;;;;;;4929783;28;20237;-66
2023/06/02 11:15:18;;;;;;;6.75;2.67;;;17.00;99.90;;;;;;4968376;28;20345;-66
2023/06/02 11:17:48;;;;;;;5.88;2.67;;;16.90;99.90;;;;;;4965217;28;20242;-65
2023/06/02 11:20:17;;;;;;;5.75;2.70;;;16.80;99.90;;;;;;4984127;28;20280;-66
2023/06/02 11:22:44;;;;;;;6.78;2.35;;;16.80;99.90;;;;;;4977453;28;20233;-66
2023/06/02 11:25:12;;;;;;;5.25;2.58;;;16.70;99.90;;;;;;4979160;28;20261;-65
2023/06/02 11:27:41;;;;;;;3.42;2.38;;;16.70;99.90;;;;;;4955812;28;20221;-66
2023/06/02 11:30:15;;;;;;;6.50;2.20;;;16.70;99.90;;;;;;4962348;28;20576;-65
2023/06/02 11:32:44;;;;;;;5.97;2.20;;;16.70;99.90;;;;;;4979363;28;20221;-65
2023/06/02 11:35:12;;;;;;;4.50;2.20;;;16.80;99.90;;;;;;4982491;28;20327;-66
2023/06/02 11:37:41;;;;;;;7.35;2.42;;;16.80;99.90;;;;;;4988926;28;20645;-66
2023/06/02 11:40:10;;;;;;;4.10;2.55;;;16.80;99.90;;;;;;4981895;28;20226;-65
2023/06/02 11:42:40;;;;;;;5.68;2.65;;;16.70;99.90;;;;;;4966358;28;20233;-66
2023/06/02 11:45:18;;;;;;;6.65;2.88;;;16.70;99.90;;;;;;4988109;28;20202;-65
2023/06/02 11:47:47;;;;;;;10.93;2.60;;;16.70;99.90;;;;;;4989373;28;20209;-66
2023/06/02 11:50:16;;;;;;;6.35;2.58;;;16.70;99.90;;;;;;4993416;28;21381;-66
2023/06/02 11:52:43;;;;;;;6.13;2.70;;;16.70;99.90;;;;;;4976545;28;20237;-66
2023/06/02 11:55:11;;;;;;;5.35;2.28;;;16.70;99.90;;;;;;4997897;28;20226;-65
2023/06/02 11:57:38;;;;;;;6.50;2.53;;;16.70;99.90;;;;;;4964921;28;20285;-66
2023/06/02 12:00:10;;;;;;;7.53;2.67;;;16.70;99.90;;;;;;4994431;28;20228;-66
2023/06/02 12:02:39;;;;;;;5.25;2.38;;;16.70;99.90;;;;;;4973507;28;20244;-66
2023/06/02 12:05:10;;;;;;;7.30;2.78;;;16.70;99.90;;;;;;5003506;28;20235;-65
2023/06/02 12:07:38;;;;;;;3.30;2.17;;;16.70;99.90;;;;;;4978710;28;20802;-66
2023/06/02 12:10:05;;;;;;;6.30;2.30;;;16.70;99.90;;;;;;5005267;28;20209;-66
2023/06/02 12:12:33;;;;;;;5.35;2.58;;;16.70;99.90;;;;;;4993813;28;20292;-65
2023/06/02 12:15:11;;;;;;;4.20;2.30;;;16.70;99.90;;;;;;4970951;28;20226;-67
2023/06/02 12:17:41;;;;;;;8.20;2.53;;;16.70;99.90;;;;;;4957821;28;20230;-66
2023/06/02 12:20:10;;;;;;;4.28;2.80;;;16.80;99.90;;;;;;4991869;28;20225;-66
2023/06/02 12:22:52;;;;;;;8.10;2.63;;;17.00;99.90;;;;;;4987842;28;20241;-66
2023/06/02 12:25:20;;;;;;;7.45;3.25;;;17.10;99.90;;;;;;5002201;28;20214;-66
2023/06/02 12:27:47;;;;;;;5.60;2.45;;;17.20;99.90;;;;;;4988115;28;20215;-66
2023/06/02 12:30:15;;;;;;;7.70;2.78;;;17.20;99.90;;;;;;4972553;28;20246;-66
2023/06/02 12:32:42;;;;;;;9.88;2.85;;;17.10;99.90;;;;;;4976974;28;20210;-66
2023/06/02 12:35:11;;;;;;;4.90;2.40;;;17.00;99.90;;;;;;4970572;28;20613;-66
2023/06/02 12:37:38;;;;;;;7.68;2.78;;;16.90;99.90;;;;;;4973752;28;20595;-66
2023/06/02 12:40:06;;;;;;;6.15;3.00;;;16.80;99.90;;;;;;4968283;28;20352;-65
2023/06/02 12:42:33;;;;;;;5.93;2.88;;;16.80;99.90;;;;;;4972736;28;20726;-65
2023/06/02 12:45:00;;;;;;;8.52;3.30;;;16.80;99.90;;;;;;4963954;28;20718;-66
2023/06/02 12:47:28;;;;;;;6.45;3.40;;;16.80;99.90;;;;;;4974304;28;20236;-66
2023/06/02 12:49:54;;;;;;;5.78;3.50;;;16.70;99.90;;;;;;4969430;28;20233;-66